Time;durP1;ratioP1;P1;durP2;ratioP2;P2;SDS_P1;SDS_P2;PMS_P1;PMS_P2;Temp;Humidity;BMP_temperature;BMP_pressure;BME280_temperature;BME280_humidity;BME280_pressure;Samples;Min_cycle;Max_cycle;Signal;HPM_P1;HPM_P2
2023/06/29 00:01:32;;;;;;;24.02;14.32;;;;;;;21.36;76.71;101404.47;3576017;40;20068;-70
2023/06/29 00:03:59;;;;;;;20.48;14.90;;;;;;;21.38;76.84;101399.72;3574980;40;20372;-70
2023/06/29 00:06:24;;;;;;;18.40;15.27;;;;;;;21.38;76.87;101399.72;3579703;40;20113;-70
2023/06/29 00:08:50;;;;;;;21.00;15.18;;;;;;;21.36;76.52;101399.00;3573981;40;20444;-70
2023/06/29 00:11:16;;;;;;;21.67;15.38;;;;;;;21.35;76.53;101388.19;3576402;40;20099;-70
2023/06/29 00:13:41;;;;;;;17.75;14.63;;;;;;;21.30;76.94;101381.28;3575862;40;20052;-70
2023/06/29 00:16:07;;;;;;;19.60;15.40;;;;;;;21.27;77.32;101380.72;3578587;40;20306;-70
2023/06/29 00:18:33;;;;;;;19.48;15.40;;;;;;;21.27;77.27;101386.19;3575770;40;20135;-69
2023/06/29 00:21:00;;;;;;;18.88;15.15;;;;;;;21.29;77.12;101381.44;3573797;40;20120;-69
2023/06/29 00:23:26;;;;;;;21.45;15.55;;;;;;;21.31;77.27;101372.09;3575924;40;20128;-69
2023/06/29 00:25:56;;;;;;;22.05;15.23;;;;;;;21.29;77.60;101360.44;3577203;39;20059;-69
2023/06/29 00:28:21;;;;;;;18.48;14.75;;;;;;;21.32;77.22;101372.94;3577089;40;20683;-69
2023/06/29 00:30:47;;;;;;;18.70;13.90;;;;;;;21.29;77.66;101379.56;3574797;40;20063;-70
2023/06/29 00:33:13;;;;;;;21.58;14.45;;;;;;;21.20;77.96;101355.88;3577820;40;20125;-70
2023/06/29 00:35:39;;;;;;;21.88;14.60;;;;;;;21.26;77.87;101362.59;3577566;40;20117;-70
2023/06/29 00:38:04;;;;;;;20.30;14.43;;;;;;;21.24;78.18;101362.75;3574906;40;20296;-71
2023/06/29 00:40:30;;;;;;;19.02;14.80;;;;;;;21.21;79.25;101364.91;3575736;40;20067;-71
2023/06/29 00:42:56;;;;;;;28.08;16.83;;;;;;;21.21;78.69;101370.38;3576450;40;20096;-70
2023/06/29 00:45:21;;;;;;;22.05;15.90;;;;;;;21.17;79.63;101361.63;3579988;40;20051;-70
2023/06/29 00:47:47;;;;;;;19.67;14.50;;;;;;;21.18;79.16;101366.06;3578531;40;20069;-69
2023/06/29 00:50:14;;;;;;;20.88;14.35;;;;;;;21.09;78.75;101350.56;3577882;40;20121;-69
2023/06/29 00:52:40;;;;;;;19.52;14.80;;;;;;;20.53;78.60;101262.22;3574919;40;20150;-70
2023/06/29 00:55:07;;;;;;;18.10;13.85;;;;;;;21.18;79.02;101362.50;3575047;40;20463;-70
2023/06/29 00:57:32;;;;;;;18.38;14.38;;;;;;;21.19;78.79;101361.50;3574955;40;20070;-70
2023/06/29 01:00:00;;;;;;;18.80;14.27;;;;;;;21.19;78.53;101350.56;3576103;40;20068;-70
2023/06/29 01:02:29;;;;;;;18.52;15.18;;;;;;;21.00;77.56;101319.56;3569364;40;20060;-70
2023/06/29 01:04:57;;;;;;;19.10;14.30;;;;;;;21.20;78.18;101347.66;3574910;40;20630;-70
2023/06/29 01:07:30;;;;;;;17.80;14.82;;;;;;;21.21;78.72;101345.78;3577735;40;20298;-70
2023/06/29 01:09:58;;;;;;;22.33;15.93;;;;;;;21.19;78.02;101348.69;3574742;40;20264;-70
2023/06/29 01:12:26;;;;;;;20.65;15.13;;;;;;;21.20;78.16;101352.28;3574960;40;20384;-69
2023/06/29 01:14:55;;;;;;;17.52;14.95;;;;;;;20.96;77.88;101307.19;3576308;39;20136;-69
2023/06/29 01:17:27;;;;;;;22.52;14.98;;;;;;;21.16;77.40;101346.25;3576558;40;20104;-69
2023/06/29 01:19:55;;;;;;;19.87;15.17;;;;;;;20.84;77.43;101281.94;3575554;40;20063;-70
2023/06/29 01:22:42;;;;;;;20.88;15.25;;;;;;;21.22;77.33;101347.53;3580865;40;20294;-69
2023/06/29 01:25:08;;;;;;;17.85;15.00;;;;;;;21.18;77.23;101341.47;3581287;40;20040;-70
2023/06/29 01:27:34;;;;;;;21.13;15.55;;;;;;;21.18;77.57;101337.88;3580453;40;20097;-70
2023/06/29 01:30:01;;;;;;;18.52;15.50;;;;;;;21.18;76.62;101343.34;3582385;40;21556;-70
2023/06/29 01:32:33;;;;;;;18.73;14.95;;;;;;;20.92;76.49;101300.31;3580823;40;20121;-70
2023/06/29 01:35:02;;;;;;;18.48;15.40;;;;;;;21.19;76.94;101336.88;3574978;40;20064;-70
2023/06/29 01:37:52;;;;;;;18.45;14.02;;;;;;;21.02;76.70;101301.13;3577271;40;20133;-71
2023/06/29 01:40:26;;;;;;;19.90;14.20;;;;;;;21.17;76.80;101328.81;3575238;40;20056;-70
2023/06/29 01:42:56;;;;;;;17.05;13.88;;;;;;;21.18;75.85;101329.69;3574203;40;20056;-70
2023/06/29 01:45:24;;;;;;;17.30;14.18;;;;;;;21.17;76.10;101325.22;3575349;39;20052;-71
2023/06/29 01:47:50;;;;;;;19.38;14.82;;;;;;;21.17;76.07;101325.22;3573528;40;20053;-69
2023/06/29 01:50:17;;;;;;;18.10;14.63;;;;;;;21.18;76.34;101324.22;3574811;40;20104;-71
2023/06/29 01:52:44;;;;;;;18.33;14.13;;;;;;;21.14;75.91;101320.06;3573389;40;20047;-71
2023/06/29 01:55:11;;;;;;;17.15;13.65;;;;;;;21.16;76.25;101323.53;3574386;40;20292;-70
2023/06/29 01:57:37;;;;;;;16.95;13.70;;;;;;;21.16;76.26;101320.78;3573222;40;20137;-71
2023/06/29 02:00:04;;;;;;;18.65;15.05;;;;;;;21.17;75.88;101327.97;3574707;40;20154;-70
2023/06/29 02:02:33;;;;;;;19.38;15.32;;;;;;;21.18;76.16;101318.75;3578955;40;20052;-70
2023/06/29 02:04:58;;;;;;;18.17;14.90;;;;;;;21.13;75.93;101319.22;3573884;39;20461;-70
2023/06/29 02:07:24;;;;;;;19.33;14.77;;;;;;;21.15;76.55;101317.16;3574446;40;20064;-69
2023/06/29 02:09:51;;;;;;;18.48;14.82;;;;;;;21.16;76.33;101310.72;3573069;40;20052;-70
2023/06/29 02:12:17;;;;;;;17.92;14.88;;;;;;;20.96;75.89;101279.84;3575752;40;20058;-70
2023/06/29 02:14:43;;;;;;;17.63;14.80;;;;;;;21.03;76.68;101293.81;3575638;39;20298;-70
2023/06/29 02:17:08;;;;;;;19.55;15.80;;;;;;;21.14;76.00;101309.13;3576724;40;20300;-69
2023/06/29 02:19:34;;;;;;;23.52;16.80;;;;;;;21.14;76.46;101307.25;3573948;40;20060;-71
2023/06/29 02:22:00;;;;;;;18.83;16.17;;;;;;;21.14;76.29;101309.13;3575428;40;21286;-70
2023/06/29 02:24:25;;;;;;;19.70;15.75;;;;;;;21.12;76.34;101302.94;3573449;39;20064;-71
2023/06/29 02:26:51;;;;;;;19.80;15.57;;;;;;;21.13;75.98;101307.41;3573480;40;20111;-71
2023/06/29 02:29:17;;;;;;;18.67;15.80;;;;;;;20.96;76.16;101279.84;3575188;40;20068;-71
2023/06/29 02:31:42;;;;;;;19.65;15.60;;;;;;;21.12;76.23;101303.78;3571891;40;20445;-71
2023/06/29 02:34:08;;;;;;;19.20;16.17;;;;;;;21.12;76.19;101301.06;3576227;40;20294;-71
2023/06/29 02:36:34;;;;;;;21.83;16.42;;;;;;;21.09;76.30;101307.72;3576029;40;22092;-71
2023/06/29 02:38:59;;;;;;;20.73;15.57;;;;;;;21.08;75.92;101294.19;3574429;40;20071;-72
2023/06/29 02:41:25;;;;;;;17.30;15.35;;;;;;;21.08;76.75;101295.03;3576282;40;20048;-71
2023/06/29 02:43:52;;;;;;;20.25;16.80;;;;;;;21.06;76.88;101294.34;3575807;40;20063;-71
2023/06/29 02:46:18;;;;;;;20.42;15.98;;;;;;;21.07;76.95;101293.34;3575741;39;20059;-71
2023/06/29 02:48:44;;;;;;;23.85;15.98;;;;;;;21.07;76.46;101289.75;3572851;40;20059;-71
2023/06/29 02:51:10;;;;;;;20.20;16.70;;;;;;;21.03;76.39;101296.53;3576211;40;20060;-71
2023/06/29 02:53:36;;;;;;;21.95;17.05;;;;;;;20.98;76.43;101283.31;3577650;40;20306;-71
2023/06/29 02:56:01;;;;;;;20.80;16.60;;;;;;;20.98;76.85;101282.44;3578316;40;20093;-71
2023/06/29 02:58:27;;;;;;;22.65;16.98;;;;;;;20.98;77.01;101288.78;3576476;40;20471;-71
2023/06/29 03:00:53;;;;;;;20.42;16.45;;;;;;;20.95;77.21;101283.59;3581577;40;20398;-71
2023/06/29 03:03:18;;;;;;;21.10;18.23;;;;;;;20.95;77.11;101280.88;3580732;40;20067;-71
2023/06/29 03:05:44;;;;;;;21.30;17.55;;;;;;;20.95;77.68;101280.88;3579836;40;20311;-72
2023/06/29 03:08:09;;;;;;;19.83;17.65;;;;;;;20.88;77.67;101277.03;3583549;40;20116;-71
2023/06/29 03:10:35;;;;;;;21.95;17.80;;;;;;;20.95;77.28;101278.13;3580575;40;20075;-71
2023/06/29 03:13:00;;;;;;;21.88;18.95;;;;;;;20.95;77.46;101283.59;3577249;40;20104;-72
2023/06/29 03:15:26;;;;;;;23.85;18.23;;;;;;;20.93;77.83;101280.19;3576877;40;20063;-72
2023/06/29 03:17:52;;;;;;;24.65;20.48;;;;;;;20.96;77.72;101277.13;3578135;40;20051;-71
2023/06/29 03:20:18;;;;;;;27.35;21.02;;;;;;;20.90;77.68;101272.28;3577716;40;20399;-71
2023/06/29 03:22:43;;;;;;;24.98;20.33;;;;;;;20.91;77.94;101279.47;3580534;40;20275;-71
2023/06/29 03:25:12;;;;;;;30.50;21.13;;;;;;;20.90;78.31;101280.50;3580815;39;20063;-71
2023/06/29 03:27:38;;;;;;;26.45;21.17;;;;;;;20.90;78.61;101274.13;3576864;40;20048;-71
2023/06/29 03:30:05;;;;;;;27.02;21.17;;;;;;;20.87;78.26;101269.84;3576660;40;20060;-71
2023/06/29 03:32:31;;;;;;;26.02;20.08;;;;;;;20.89;78.30;101267.81;3577042;40;20832;-71
2023/06/29 03:34:56;;;;;;;24.38;20.23;;;;;;;20.90;78.16;101264.09;3575333;40;20064;-71
2023/06/29 03:37:22;;;;;;;24.17;20.02;;;;;;;20.93;78.21;101269.25;3577342;40;20335;-71
2023/06/29 03:39:47;;;;;;;25.65;20.33;;;;;;;20.92;78.28;101266.66;3577168;40;20337;-71
2023/06/29 03:42:13;;;;;;;26.02;19.42;;;;;;;20.86;78.59;101268.09;3581158;40;20067;-71
2023/06/29 03:44:39;;;;;;;23.55;19.27;;;;;;;20.91;78.57;101264.94;3573695;40;20099;-71
2023/06/29 03:47:06;;;;;;;23.40;19.65;;;;;;;20.93;78.42;101274.72;3577331;40;20064;-69
2023/06/29 03:49:33;;;;;;;24.67;19.70;;;;;;;20.94;78.28;101270.97;3576222;39;20491;-69
2023/06/29 03:51:59;;;;;;;24.45;19.13;;;;;;;20.74;78.34;101242.88;3575812;40;20068;-69
2023/06/29 03:54:26;;;;;;;25.05;19.48;;;;;;;20.92;78.85;101272.97;3577536;40;20112;-69
2023/06/29 03:56:52;;;;;;;25.30;20.02;;;;;;;20.95;78.48;101275.41;3578731;40;20395;-69
2023/06/29 03:59:17;;;;;;;23.48;19.58;;;;;;;20.95;78.34;101261.75;3574416;40;20780;-68
2023/06/29 04:01:43;;;;;;;26.25;19.88;;;;;;;20.94;78.58;101264.63;3574804;40;20743;-69
2023/06/29 04:04:09;;;;;;;28.38;19.63;;;;;;;20.93;78.78;101252.84;3575412;40;20434;-68
2023/06/29 04:06:34;;;;;;;25.40;19.42;;;;;;;20.93;79.17;101250.13;3577084;40;20339;-68
2023/06/29 04:09:00;;;;;;;26.83;20.23;;;;;;;20.93;79.08;101247.38;3568449;40;20383;-67
2023/06/29 04:11:26;;;;;;;25.08;19.38;;;;;;;20.91;79.34;101248.53;3580111;40;20322;-68
2023/06/29 04:13:51;;;;;;;25.40;19.25;;;;;;;20.96;78.27;101248.94;3575736;40;20058;-69
2023/06/29 04:16:17;;;;;;;23.75;19.48;;;;;;;20.97;78.46;101246.06;3580962;39;20051;-68
2023/06/29 04:18:43;;;;;;;23.17;18.88;;;;;;;21.00;78.42;101236.69;3577313;40;20430;-68
2023/06/29 04:21:09;;;;;;;24.23;19.55;;;;;;;20.93;79.31;101225.53;3573891;40;20700;-68
2023/06/29 04:23:34;;;;;;;22.50;18.83;;;;;;;20.98;78.81;101239.56;3579916;40;20059;-67
2023/06/29 04:26:03;;;;;;;22.27;18.63;;;;;;;20.96;78.72;101236.13;3578383;40;20069;-68
2023/06/29 04:28:32;;;;;;;24.15;18.58;;;;;;;21.00;78.78;101237.56;3583377;40;20100;-67
2023/06/29 04:30:58;;;;;;;23.70;19.73;;;;;;;21.00;78.97;101234.81;3578683;40;20060;-68
2023/06/29 04:33:24;;;;;;;21.85;19.23;;;;;;;20.97;78.91;101243.31;3576804;40;20081;-68
2023/06/29 04:35:50;;;;;;;23.55;19.48;;;;;;;20.97;78.37;101237.88;3579059;40;20066;-68
2023/06/29 04:38:17;;;;;;;27.38;20.38;;;;;;;21.00;78.88;101236.69;3575706;40;20056;-68
2023/06/29 04:40:43;;;;;;;23.08;19.73;;;;;;;21.00;79.15;101243.03;3573872;40;20263;-68
2023/06/29 04:43:09;;;;;;;23.13;19.02;;;;;;;21.02;78.62;101240.97;3575716;40;20149;-68
2023/06/29 04:45:35;;;;;;;24.90;19.77;;;;;;;21.02;78.99;101246.44;3576941;40;20056;-67
2023/06/29 04:48:01;;;;;;;23.70;19.75;;;;;;;21.04;78.93;101238.09;3579181;40;20698;-67
2023/06/29 04:50:35;;;;;;;26.60;19.67;;;;;;;21.05;78.98;101235.19;3575247;40;20059;-67
2023/06/29 04:53:09;;;;;;;22.92;19.30;;;;;;;21.05;78.50;101232.47;3576341;40;20056;-68
2023/06/29 04:55:37;;;;;;;24.08;20.10;;;;;;;21.04;79.19;101228.03;3577537;40;20056;-67
2023/06/29 04:58:03;;;;;;;25.73;19.58;;;;;;;21.06;79.25;101236.09;3576940;40;20041;-68
2023/06/29 05:00:30;;;;;;;24.70;19.85;;;;;;;21.05;78.57;101235.19;3574864;40;20399;-68
2023/06/29 05:02:56;;;;;;;25.27;19.92;;;;;;;21.06;79.01;101231.47;3577597;40;20072;-68
2023/06/29 05:05:22;;;;;;;24.60;20.33;;;;;;;20.95;78.96;101223.47;3576437;40;20059;-68
2023/06/29 05:07:50;;;;;;;22.65;19.88;;;;;;;21.10;78.33;101240.22;3577785;40;20059;-68
2023/06/29 05:10:15;;;;;;;24.15;19.67;;;;;;;20.96;78.50;101208.78;3578294;40;20064;-70
2023/06/29 05:12:41;;;;;;;25.95;20.35;;;;;;;20.91;78.80;101192.00;3573846;40;20092;-70
2023/06/29 05:15:08;;;;;;;26.77;19.83;;;;;;;21.17;79.17;101237.75;3576379;39;20060;-69
2023/06/29 05:17:33;;;;;;;24.48;20.15;;;;;;;21.16;78.46;101236.03;3575220;40;20072;-70
2023/06/29 05:19:59;;;;;;;24.73;20.75;;;;;;;21.20;78.15;101240.16;3574452;40;20133;-70
2023/06/29 05:22:25;;;;;;;24.67;19.73;;;;;;;21.17;78.25;101232.28;3573291;40;20080;-71
2023/06/29 05:24:50;;;;;;;23.52;20.10;;;;;;;21.21;78.67;101233.66;3574802;39;20067;-71
2023/06/29 05:27:16;;;;;;;25.95;21.13;;;;;;;21.20;78.36;101231.97;3575074;40;20048;-71
2023/06/29 05:29:41;;;;;;;24.40;20.52;;;;;;;21.19;78.37;101227.53;3573691;40;20067;-71
2023/06/29 05:32:08;;;;;;;25.63;19.90;;;;;;;21.19;78.02;101227.53;3574444;40;20567;-70
2023/06/29 05:34:35;;;;;;;24.17;20.33;;;;;;;21.20;78.21;101229.22;3572075;40;20072;-71
2023/06/29 05:37:01;;;;;;;27.27;21.65;;;;;;;21.17;78.23;101222.19;3575298;40;20048;-71
2023/06/29 05:39:27;;;;;;;27.00;21.48;;;;;;;21.17;77.63;101216.72;3575144;40;20300;-71
2023/06/29 05:41:53;;;;;;;27.05;21.52;;;;;;;21.20;77.85;101224.63;3578884;40;20054;-71
2023/06/29 05:44:18;;;;;;;26.33;20.48;;;;;;;21.24;78.36;101234.22;3574631;40;20098;-71
2023/06/29 05:46:44;;;;;;;23.75;20.10;;;;;;;21.31;77.46;101223.53;3578061;40;20312;-71
2023/06/29 05:49:10;;;;;;;25.98;20.80;;;;;;;21.37;76.96;101228.41;3576601;40;20107;-70
2023/06/29 05:51:37;;;;;;;24.17;19.77;;;;;;;21.06;76.14;101165.88;3574877;40;20134;-71
2023/06/29 05:54:04;;;;;;;24.55;19.60;;;;;;;21.43;76.51;101218.72;3577798;40;20043;-71
2023/06/29 05:56:31;;;;;;;26.13;20.25;;;;;;;21.44;75.38;101215.84;3580075;39;20053;-71
2023/06/29 05:58:56;;;;;;;23.98;19.92;;;;;;;21.49;75.27;101221.69;3573625;40;20068;-70
2023/06/29 06:01:22;;;;;;;28.27;20.23;;;;;;;21.49;73.68;101216.22;3578272;40;20315;-71
2023/06/29 06:03:48;;;;;;;23.35;18.58;;;;;;;21.51;73.18;101218.81;3574497;40;20055;-71
2023/06/29 06:06:13;;;;;;;21.27;18.25;;;;;;;21.55;73.19;101223.81;3575999;39;20059;-70
2023/06/29 06:08:39;;;;;;;23.17;18.08;;;;;;;21.61;72.80;101221.47;3572820;40;20133;-70
2023/06/29 06:11:05;;;;;;;22.98;18.55;;;;;;;21.55;73.19;101201.06;3574198;40;20055;-70
2023/06/29 06:13:31;;;;;;;22.38;17.75;;;;;;;21.70;72.08;101218.66;3573864;40;20334;-69
2023/06/29 06:15:56;;;;;;;22.75;19.08;;;;;;;21.78;72.14;101226.91;3572365;39;20048;-70
2023/06/29 06:18:22;;;;;;;22.98;17.13;;;;;;;21.86;71.33;101228.88;3573752;40;20075;-70
2023/06/29 06:20:48;;;;;;;25.55;18.52;;;;;;;21.92;71.39;101219.16;3563881;40;20089;-71
2023/06/29 06:23:14;;;;;;;23.60;19.08;;;;;;;21.66;70.88;101167.13;3571199;40;20063;-70
2023/06/29 06:25:39;;;;;;;23.58;18.00;;;;;;;22.05;70.40;101221.50;3572431;40;20414;-70
2023/06/29 06:28:05;;;;;;;22.30;17.20;;;;;;;22.07;70.36;101220.28;3570322;40;20159;-71
2023/06/29 06:30:31;;;;;;;22.63;17.50;;;;;;;22.13;69.25;101219.66;3574113;40;20234;-71
2023/06/29 06:32:56;;;;;;;23.65;17.15;;;;;;;22.17;68.82;101222.94;3572204;40;20665;-70
2023/06/29 06:35:22;;;;;;;20.48;16.50;;;;;;;22.19;68.57;101223.66;3574755;39;20075;-70
2023/06/29 06:37:47;;;;;;;22.45;17.13;;;;;;;22.25;68.59;101223.03;3573496;40;20071;-71
2023/06/29 06:40:15;;;;;;;21.08;16.38;;;;;;;22.00;68.84;101167.19;3575495;40;20068;-71
2023/06/29 06:42:41;;;;;;;18.80;16.25;;;;;;;22.35;67.97;101218.28;3578232;39;20052;-71
2023/06/29 06:45:08;;;;;;;21.13;16.67;;;;;;;21.80;66.80;101130.97;3573697;40;20093;-71
2023/06/29 06:47:35;;;;;;;21.23;16.30;;;;;;;22.39;67.38;101219.69;3571039;40;20255;-71
2023/06/29 06:50:03;;;;;;;19.27;15.88;;;;;;;22.45;66.50;101221.78;3570781;40;20314;-70
2023/06/29 06:52:29;;;;;;;21.77;16.83;;;;;;;22.48;66.58;101218.69;3575490;40;20404;-71
2023/06/29 06:54:58;;;;;;;20.25;16.05;;;;;;;22.57;66.03;101221.50;3573460;40;20060;-70
2023/06/29 06:57:24;;;;;;;21.35;15.85;;;;;;;22.69;65.98;101214.69;3570381;40;20069;-70
2023/06/29 06:59:50;;;;;;;19.02;15.73;;;;;;;22.86;65.20;101221.94;3572726;40;20079;-70
2023/06/29 07:02:16;;;;;;;20.67;16.02;;;;;;;23.03;64.08;101219.31;3577143;40;20059;-71
2023/06/29 07:04:41;;;;;;;19.45;15.60;;;;;;;23.20;63.59;101221.06;3575699;40;20095;-71
2023/06/29 07:07:08;;;;;;;20.20;16.13;;;;;;;23.10;61.63;101182.81;3573114;40;20060;-71
2023/06/29 07:09:34;;;;;;;19.27;14.65;;;;;;;23.46;61.42;101228.31;3575311;40;20048;-71
2023/06/29 07:12:00;;;;;;;21.05;14.82;;;;;;;23.62;60.78;101214.63;3571873;40;20402;-71
2023/06/29 07:14:26;;;;;;;20.05;15.77;;;;;;;23.78;60.92;101227.53;3574293;40;20060;-71
2023/06/29 07:16:52;;;;;;;19.67;15.80;;;;;;;23.88;59.04;101216.38;3572219;40;20092;-71
2023/06/29 07:19:17;;;;;;;16.85;14.45;;;;;;;23.99;58.84;101224.25;3574996;40;20703;-71
2023/06/29 07:21:43;;;;;;;18.42;14.90;;;;;;;24.06;58.36;101214.28;3572614;40;20411;-72
2023/06/29 07:24:10;;;;;;;18.27;14.52;;;;;;;24.14;57.61;101219.78;3572888;40;20222;-71
2023/06/29 07:26:38;;;;;;;18.55;15.15;;;;;;;24.12;56.54;101221.84;3575464;40;20060;-70
2023/06/29 07:29:05;;;;;;;18.70;15.15;;;;;;;24.14;57.14;101221.69;3574872;40;20060;-70
2023/06/29 07:31:31;;;;;;;20.15;15.25;;;;;;;24.15;56.12;101218.75;3577171;40;20485;-71
2023/06/29 07:33:57;;;;;;;20.00;15.63;;;;;;;24.17;55.52;101216.69;3574511;40;20068;-70
2023/06/29 07:36:26;;;;;;;20.52;15.63;;;;;;;24.20;55.78;101215.47;3572703;40;20068;-70
2023/06/29 07:38:53;;;;;;;20.52;16.17;;;;;;;24.14;55.07;101203.31;3570071;40;20068;-70
2023/06/29 07:41:20;;;;;;;18.88;15.77;;;;;;;24.17;55.62;101221.31;3576455;40;20086;-70
2023/06/29 07:43:56;;;;;;;21.02;17.08;;;;;;;24.15;55.04;101221.50;3575138;40;20044;-70
2023/06/29 07:46:23;;;;;;;18.50;15.43;;;;;;;24.23;53.74;101205.00;3574657;40;20756;-70
2023/06/29 07:48:50;;;;;;;19.88;15.90;;;;;;;24.33;55.12;101210.31;3573010;40;20388;-70
2023/06/29 07:51:17;;;;;;;18.13;15.07;;;;;;;24.31;54.37;101191.22;3576193;40;20100;-70
2023/06/29 07:53:43;;;;;;;19.05;16.02;;;;;;;24.60;54.57;101211.78;3570850;40;20063;-71
2023/06/29 07:56:10;;;;;;;20.02;16.58;;;;;;;24.66;53.59;101208.34;3575135;40;20130;-71
2023/06/29 07:58:36;;;;;;;19.60;15.52;;;;;;;24.64;53.19;101212.28;3574176;40;20059;-71
2023/06/29 08:01:02;;;;;;;21.98;16.02;;;;;;;24.39;54.18;101176.63;3574288;40;20060;-71
2023/06/29 08:03:28;;;;;;;23.33;17.00;;;;;;;24.56;54.65;101213.19;3574175;40;20059;-71
2023/06/29 08:05:54;;;;;;;19.88;16.13;;;;;;;24.38;53.75;101185.03;3570733;40;20067;-71
2023/06/29 08:08:23;;;;;;;20.75;16.27;;;;;;;24.44;53.86;101209.09;3572618;40;20079;-71
2023/06/29 08:10:48;;;;;;;21.30;16.23;;;;;;;24.25;53.89;101191.06;3573286;40;20317;-71
2023/06/29 08:13:16;;;;;;;18.23;15.73;;;;;;;24.24;53.79;101206.72;3576071;40;20576;-71
2023/06/29 08:15:42;;;;;;;21.30;16.55;;;;;;;24.18;54.18;101201.91;3573873;40;20052;-71
2023/06/29 08:18:08;;;;;;;19.70;15.38;;;;;;;24.16;55.54;101195.72;3573823;40;20423;-70
2023/06/29 08:20:33;;;;;;;20.70;16.58;;;;;;;24.24;55.12;101206.72;3576502;40;20079;-71
2023/06/29 08:22:59;;;;;;;22.05;16.92;;;;;;;24.29;54.40;101204.31;3578869;40;20153;-71
2023/06/29 08:25:25;;;;;;;22.25;17.00;;;;;;;24.31;54.30;101202.22;3573592;40;20102;-70
2023/06/29 08:27:50;;;;;;;24.15;16.65;;;;;;;24.42;54.22;101208.41;3574679;40;20060;-70
2023/06/29 08:30:16;;;;;;;26.02;17.95;;;;;;;24.45;54.34;101205.31;3571975;40;20063;-70
2023/06/29 08:32:43;;;;;;;24.75;17.65;;;;;;;24.24;54.27;101171.00;3576997;40;20079;-71
2023/06/29 08:35:09;;;;;;;22.95;17.45;;;;;;;24.27;54.52;101178.88;3571764;40;20110;-71
2023/06/29 08:37:35;;;;;;;21.17;17.38;;;;;;;24.39;53.97;101203.22;3572784;40;20521;-70
2023/06/29 08:40:03;;;;;;;20.95;18.08;;;;;;;24.39;53.98;101203.22;3576942;40;20047;-71
2023/06/29 08:42:29;;;;;;;22.85;18.30;;;;;;;24.41;53.39;101206.66;3560796;40;20052;-71
2023/06/29 08:44:55;;;;;;;22.52;18.05;;;;;;;24.47;53.19;101201.34;3574377;39;20387;-71
2023/06/29 08:47:23;;;;;;;21.35;16.63;;;;;;;24.62;54.21;101206.13;3572698;40;20060;-71
2023/06/29 08:49:56;;;;;;;23.88;17.88;;;;;;;24.77;53.08;101207.97;3574559;40;20371;-71
2023/06/29 08:52:26;;;;;;;22.35;18.45;;;;;;;24.89;53.75;101199.28;3575195;40;20072;-71
2023/06/29 08:54:53;;;;;;;23.35;18.65;;;;;;;25.01;53.00;101193.22;3576146;40;20059;-71
2023/06/29 08:57:23;;;;;;;21.95;18.05;;;;;;;25.24;52.12;101190.50;3570013;40;20209;-71
2023/06/29 08:59:50;;;;;;;24.83;19.00;;;;;;;25.50;52.57;101191.19;3571299;40;20126;-70
2023/06/29 09:02:17;;;;;;;22.85;18.92;;;;;;;25.31;50.16;101145.75;3573205;40;20065;-71
2023/06/29 09:04:44;;;;;;;23.40;17.88;;;;;;;25.79;51.15;101184.97;3571601;40;20499;-71
2023/06/29 09:07:10;;;;;;;20.17;16.25;;;;;;;26.00;48.60;101192.53;3570870;40;20382;-71
2023/06/29 09:09:37;;;;;;;20.70;17.25;;;;;;;25.86;48.96;101169.41;3571691;40;20065;-71
2023/06/29 09:12:03;;;;;;;21.45;16.58;;;;;;;25.97;48.93;101188.22;3571684;40;20166;-71
2023/06/29 09:14:32;;;;;;;21.55;16.63;;;;;;;25.88;48.27;101189.34;3572858;40;20053;-71
2023/06/29 09:17:01;;;;;;;19.33;16.30;;;;;;;25.70;48.90;101187.78;3574540;40;20574;-71
2023/06/29 09:19:29;;;;;;;21.38;15.82;;;;;;;25.54;48.47;101176.91;3573087;40;20040;-71
2023/06/29 09:21:57;;;;;;;18.92;15.25;;;;;;;25.45;49.98;101183.50;3573373;40;20067;-70
2023/06/29 09:24:29;;;;;;;20.77;16.27;;;;;;;25.39;50.45;101178.72;3574820;40;20111;-70
2023/06/29 09:26:55;;;;;;;19.98;16.50;;;;;;;25.34;51.31;101181.16;3574084;40;20095;-71
2023/06/29 09:29:22;;;;;;;22.17;17.75;;;;;;;25.28;50.84;101184.66;3574628;40;20061;-70
2023/06/29 09:31:59;;;;;;;22.13;17.45;;;;;;;25.26;52.32;101184.00;3573921;40;20092;-71
2023/06/29 09:34:27;;;;;;;22.65;17.30;;;;;;;25.27;52.58;101185.69;3572488;40;20642;-70
2023/06/29 09:36:54;;;;;;;20.33;17.17;;;;;;;25.17;51.88;101175.78;3574451;40;20160;-71
2023/06/29 09:39:21;;;;;;;24.15;18.88;;;;;;;25.22;52.50;101176.09;3573067;40;20517;-71
2023/06/29 09:41:56;;;;;;;21.13;17.48;;;;;;;25.19;51.26;101189.38;3575604;40;20140;-70
2023/06/29 09:44:26;;;;;;;25.67;19.17;;;;;;;25.13;50.45;101190.09;3573531;40;20415;-71
2023/06/29 09:47:05;;;;;;;22.70;18.85;;;;;;;24.88;50.68;101170.09;3570155;40;20137;-71
2023/06/29 09:49:31;;;;;;;23.08;18.40;;;;;;;24.74;51.30;101156.06;3571087;40;20061;-71
2023/06/29 09:52:04;;;;;;;23.25;18.23;;;;;;;24.92;51.89;101187.94;3572668;40;20379;-71
2023/06/29 09:54:37;;;;;;;;;;;;;;;24.84;52.16;101180.59;3575524;40;20399;-71
2023/06/29 09:57:04;;;;;;;23.17;18.90;;;;;;;24.85;53.33;101181.44;3571550;40;20001;-71
2023/06/29 09:59:35;;;;;;;23.13;19.48;;;;;;;24.85;53.13;101187.78;3571445;40;20123;-71
2023/06/29 10:02:01;;;;;;;20.90;17.20;;;;;;;24.73;51.97;101162.59;3571026;40;20374;-71
2023/06/29 10:04:26;;;;;;;27.52;24.55;;;;;;;24.82;52.38;101192.81;3571188;40;20068;-71
2023/06/29 10:07:16;;;;;;;24.02;18.98;;;;;;;24.74;52.33;101178.06;3572512;40;20055;-72
2023/06/29 10:09:49;;;;;;;23.00;19.60;;;;;;;24.79;51.32;101191.25;3570755;40;20086;-71
2023/06/29 10:12:18;;;;;;;24.13;18.63;;;;;;;24.72;51.65;101188.38;3567889;40;20056;-71
2023/06/29 10:14:45;;;;;;;22.60;19.33;;;;;;;24.23;52.21;101106.09;3571741;40;20083;-71
2023/06/29 10:17:34;;;;;;;28.98;19.42;;;;;;;24.71;52.12;101181.16;3574187;40;20079;-72
2023/06/29 10:20:04;;;;;;;25.35;18.58;;;;;;;24.77;52.02;101194.22;3571839;40;20090;-71
2023/06/29 10:22:35;;;;;;;24.77;19.45;;;;;;;24.78;52.65;101192.31;3569943;40;20044;-72
2023/06/29 10:25:08;;;;;;;22.73;18.60;;;;;;;24.82;52.97;101192.81;3576289;39;20060;-72
2023/06/29 10:27:35;;;;;;;;;;;;;;;24.86;53.25;101180.41;3574241;40;20068;-72
2023/06/29 10:30:05;;;;;;;24.25;18.80;;;;;;;24.83;51.86;101178.00;3575812;40;20154;-72
2023/06/29 10:32:40;;;;;;;23.73;18.55;;;;;;;24.85;53.25;101182.28;3573184;40;20065;-71
2023/06/29 10:35:12;;;;;;;22.75;18.70;;;;;;;24.71;53.45;101169.31;3575234;40;20059;-71
2023/06/29 10:37:47;;;;;;;23.20;18.50;;;;;;;24.33;53.59;101101.25;3574821;40;20087;-71
2023/06/29 10:40:22;;;;;;;22.17;18.38;;;;;;;24.61;54.67;101147.53;3574198;40;20060;-72
2023/06/29 10:42:51;;;;;;;24.88;19.45;;;;;;;24.86;54.11;101177.66;3575024;40;20260;-71
2023/06/29 10:45:23;;;;;;;27.15;21.27;;;;;;;24.85;52.94;101181.44;3573368;40;20133;-71
2023/06/29 10:47:57;;;;;;;27.30;19.98;;;;;;;24.82;53.93;101179.06;3573378;40;20706;-71
2023/06/29 10:50:43;;;;;;;26.05;20.55;;;;;;;24.80;53.61;101181.97;3574617;40;20443;-71
2023/06/29 10:53:12;;;;;;;24.52;19.20;;;;;;;24.82;54.83;101176.31;3570144;40;20060;-71
2023/06/29 10:55:43;;;;;;;26.25;19.83;;;;;;;24.77;53.38;101185.97;3569379;40;20057;-71
2023/06/29 10:58:15;;;;;;;25.58;19.83;;;;;;;24.72;54.15;101177.38;3572609;40;20208;-72
2023/06/29 11:00:41;;;;;;;25.50;20.23;;;;;;;24.70;54.70;101182.19;3572788;40;20404;-72
2023/06/29 11:03:09;;;;;;;24.05;19.75;;;;;;;24.33;53.23;101117.72;3573552;40;20395;-70
2023/06/29 11:05:36;;;;;;;27.27;20.23;;;;;;;24.67;54.02;101174.28;3573367;40;20071;-70
2023/06/29 11:08:02;;;;;;;24.27;19.67;;;;;;;24.76;53.91;101178.72;3573279;40;20074;-70
2023/06/29 11:10:28;;;;;;;27.33;22.67;;;;;;;24.78;53.46;101175.81;3574330;40;20059;-70